EZY532 EGAC-EGGP
Flight info
| Callsign | EZY532 |
|---|---|
| Flight time | 0h 28m |
| Altitude | 21000 |
| Route | DUFFY L15 PEPOD Q38 SOSIM L28 PENIL |
| Aircraft | A320/M-SDE2E3FGHIJ1RWXYZ/LB1 |
Departure
| Time | 2026-04-26 14:23 |
|---|---|
| Airport | George Best Belfast City Airport (EGAC) |
Arrival
| Time | 2026-04-26 14:52 |
|---|---|
| Airport | Liverpool John Lennon Airport (EGGP) |
| Time | Latitude | Longitude | Altitude | Speed | Heading |
|---|---|---|---|---|---|
| 2026-04-26 13:58 | 54.61499 | -5.87145 | 23 ft | 0 kts | 155° |
| 2026-04-26 14:17 | 54.61517 | -5.87158 | 24 ft | 4 kts | 156° |
| 2026-04-26 14:18 | 54.61542 | -5.87174 | 22 ft | 4 kts | 172° |
| 2026-04-26 14:18 | 54.61568 | -5.87173 | 21 ft | 4 kts | 201° |
| 2026-04-26 14:18 | 54.61583 | -5.87159 | 23 ft | 1 kts | 216° |
| 2026-04-26 14:18 | 54.61586 | -5.87156 | 23 ft | 0 kts | 216° |
| 2026-04-26 14:20 | 54.61584 | -5.87158 | 23 ft | 2 kts | 216° |
| 2026-04-26 14:20 | 54.61522 | -5.87236 | 21 ft | 17 kts | 215° |
| 2026-04-26 14:20 | 54.61431 | -5.87347 | 21 ft | 15 kts | 222° |
| 2026-04-26 14:21 | 54.61359 | -5.87475 | 21 ft | 15 kts | 220° |
| 2026-04-26 14:21 | 54.61273 | -5.87578 | 18 ft | 15 kts | 214° |
| 2026-04-26 14:21 | 54.61195 | -5.87671 | 16 ft | 14 kts | 214° |
| 2026-04-26 14:21 | 54.61122 | -5.87757 | 18 ft | 11 kts | 215° |
| 2026-04-26 14:22 | 54.61086 | -5.87861 | 19 ft | 13 kts | 267° |
| 2026-04-26 14:22 | 54.61127 | -5.88000 | 18 ft | 13 kts | 320° |
| 2026-04-26 14:22 | 54.61210 | -5.87971 | 18 ft | 15 kts | 33° |
| 2026-04-26 14:22 | 54.61439 | -5.87698 | 12 ft | 78 kts | 34° |
| 2026-04-26 14:23 | 54.62064 | -5.86949 | 24 ft | 139 kts | 34° |
| 2026-04-26 14:23 | 54.62918 | -5.85954 | 548 ft | 151 kts | 33° |
| 2026-04-26 14:23 | 54.63617 | -5.84537 | 1119 ft | 170 kts | 72° |
| 2026-04-26 14:23 | 54.63534 | -5.82417 | 1604 ft | 189 kts | 113° |
| 2026-04-26 14:24 | 54.62800 | -5.80422 | 2097 ft | 206 kts | 132° |
| 2026-04-26 14:24 | 54.61684 | -5.78670 | 2493 ft | 231 kts | 143° |
| 2026-04-26 14:24 | 54.60274 | -5.77048 | 2992 ft | 255 kts | 150° |
| 2026-04-26 14:24 | 54.58698 | -5.75519 | 3872 ft | 263 kts | 153° |
| 2026-04-26 14:25 | 54.57074 | -5.74017 | 4900 ft | 266 kts | 153° |
| 2026-04-26 14:25 | 54.55431 | -5.72503 | 5926 ft | 269 kts | 153° |
| 2026-04-26 14:25 | 54.53777 | -5.70960 | 6936 ft | 272 kts | 153° |
| 2026-04-26 14:25 | 54.52112 | -5.69388 | 7881 ft | 275 kts | 153° |
| 2026-04-26 14:26 | 54.50430 | -5.67786 | 8822 ft | 278 kts | 153° |
| 2026-04-26 14:26 | 54.48724 | -5.66153 | 9756 ft | 283 kts | 154° |
| 2026-04-26 14:26 | 54.46992 | -5.64492 | 10564 ft | 291 kts | 154° |
| 2026-04-26 14:26 | 54.45153 | -5.62733 | 10908 ft | 314 kts | 154° |
| 2026-04-26 14:27 | 54.43204 | -5.60865 | 11523 ft | 325 kts | 153° |
| 2026-04-26 14:27 | 54.41215 | -5.58948 | 12293 ft | 331 kts | 153° |
| 2026-04-26 14:27 | 54.39191 | -5.56999 | 13088 ft | 336 kts | 153° |
| 2026-04-26 14:27 | 54.37137 | -5.55023 | 13876 ft | 341 kts | 153° |
| 2026-04-26 14:28 | 54.35050 | -5.53024 | 14569 ft | 346 kts | 153° |
| 2026-04-26 14:28 | 54.32935 | -5.51004 | 15254 ft | 350 kts | 153° |
| 2026-04-26 14:28 | 54.30795 | -5.48963 | 15927 ft | 354 kts | 153° |
| 2026-04-26 14:28 | 54.28626 | -5.46898 | 16609 ft | 359 kts | 153° |
| 2026-04-26 14:29 | 54.26431 | -5.44812 | 17266 ft | 363 kts | 153° |
| 2026-04-26 14:29 | 54.24212 | -5.42701 | 17929 ft | 367 kts | 153° |
| 2026-04-26 14:29 | 54.21965 | -5.40566 | 18592 ft | 372 kts | 153° |
| 2026-04-26 14:29 | 54.19792 | -5.38122 | 19155 ft | 378 kts | 142° |
| 2026-04-26 14:30 | 54.17894 | -5.34979 | 19736 ft | 383 kts | 131° |
| 2026-04-26 14:30 | 54.16290 | -5.31316 | 20321 ft | 387 kts | 127° |
| 2026-04-26 14:30 | 54.14709 | -5.27575 | 20924 ft | 390 kts | 127° |
| 2026-04-26 14:30 | 54.13113 | -5.23819 | 21204 ft | 392 kts | 128° |
| 2026-04-26 14:31 | 54.11523 | -5.20089 | 21269 ft | 382 kts | 128° |
| 2026-04-26 14:31 | 54.09992 | -5.16503 | 21276 ft | 368 kts | 128° |
| 2026-04-26 14:31 | 54.08497 | -5.13008 | 21276 ft | 363 kts | 128° |
| 2026-04-26 14:31 | 54.07010 | -5.09538 | 21277 ft | 362 kts | 128° |
| 2026-04-26 14:32 | 54.05525 | -5.06085 | 21283 ft | 362 kts | 128° |
| 2026-04-26 14:32 | 54.04037 | -5.02630 | 21279 ft | 362 kts | 128° |
| 2026-04-26 14:32 | 54.02573 | -4.99226 | 21278 ft | 361 kts | 128° |
| 2026-04-26 14:32 | 54.01089 | -4.95780 | 21278 ft | 361 kts | 128° |
| 2026-04-26 14:33 | 53.99601 | -4.92330 | 21279 ft | 361 kts | 128° |
| 2026-04-26 14:33 | 53.98115 | -4.88888 | 21279 ft | 361 kts | 128° |
| 2026-04-26 14:33 | 53.96628 | -4.85442 | 21281 ft | 361 kts | 128° |
| 2026-04-26 14:33 | 53.95328 | -4.81719 | 21290 ft | 363 kts | 117° |
| 2026-04-26 14:34 | 53.94230 | -4.77857 | 21287 ft | 363 kts | 117° |
| 2026-04-26 14:34 | 53.93129 | -4.73993 | 21286 ft | 363 kts | 117° |
| 2026-04-26 14:34 | 53.92040 | -4.70188 | 21284 ft | 363 kts | 118° |
| 2026-04-26 14:34 | 53.90919 | -4.66284 | 21277 ft | 363 kts | 118° |
| 2026-04-26 14:35 | 53.89811 | -4.62439 | 21277 ft | 363 kts | 118° |
| 2026-04-26 14:35 | 53.88704 | -4.58600 | 21286 ft | 362 kts | 118° |
| 2026-04-26 14:35 | 53.87600 | -4.54770 | 21291 ft | 361 kts | 118° |
| 2026-04-26 14:35 | 53.86512 | -4.50997 | 21296 ft | 361 kts | 118° |
| 2026-04-26 14:36 | 53.85410 | -4.47182 | 21297 ft | 360 kts | 118° |
| 2026-04-26 14:36 | 53.84308 | -4.43371 | 21297 ft | 360 kts | 118° |
| 2026-04-26 14:36 | 53.83171 | -4.39461 | 21287 ft | 379 kts | 118° |
| 2026-04-26 14:36 | 53.82009 | -4.35475 | 21103 ft | 373 kts | 118° |
| 2026-04-26 14:37 | 53.80871 | -4.31565 | 20480 ft | 369 kts | 118° |
| 2026-04-26 14:37 | 53.79741 | -4.27688 | 19858 ft | 365 kts | 118° |
| 2026-04-26 14:37 | 53.78623 | -4.23851 | 19253 ft | 362 kts | 117° |
| 2026-04-26 14:37 | 53.77511 | -4.20050 | 18674 ft | 359 kts | 117° |
| 2026-04-26 14:38 | 53.76408 | -4.16288 | 18075 ft | 355 kts | 118° |
| 2026-04-26 14:38 | 53.75321 | -4.12584 | 17531 ft | 348 kts | 118° |
| 2026-04-26 14:38 | 53.74253 | -4.08948 | 17006 ft | 343 kts | 118° |
| 2026-04-26 14:38 | 53.73552 | -4.06572 | 16662 ft | 340 kts | 118° |
| 2026-04-26 14:39 | 53.72156 | -4.01832 | 15989 ft | 334 kts | 118° |
| 2026-04-26 14:39 | 53.71124 | -3.98340 | 15487 ft | 331 kts | 118° |
| 2026-04-26 14:39 | 53.70444 | -3.96046 | 15161 ft | 329 kts | 118° |
| 2026-04-26 14:39 | 53.69077 | -3.91440 | 14520 ft | 330 kts | 118° |
| 2026-04-26 14:40 | 53.68395 | -3.89141 | 14200 ft | 331 kts | 118° |
| 2026-04-26 14:40 | 53.67358 | -3.85652 | 13663 ft | 333 kts | 118° |
| 2026-04-26 14:40 | 53.66328 | -3.82186 | 13132 ft | 328 kts | 118° |
| 2026-04-26 14:40 | 53.65312 | -3.78773 | 12613 ft | 323 kts | 118° |
| 2026-04-26 14:41 | 53.64307 | -3.75411 | 12099 ft | 319 kts | 119° |
| 2026-04-26 14:41 | 53.63316 | -3.72097 | 11593 ft | 315 kts | 119° |
| 2026-04-26 14:41 | 53.62338 | -3.68831 | 11087 ft | 310 kts | 120° |
| 2026-04-26 14:41 | 53.61201 | -3.65849 | 10612 ft | 297 kts | 133° |
| 2026-04-26 14:42 | 53.59787 | -3.63412 | 10123 ft | 288 kts | 139° |
| 2026-04-26 14:42 | 53.58344 | -3.61081 | 9694 ft | 287 kts | 139° |
| 2026-04-26 14:42 | 53.56908 | -3.58753 | 9268 ft | 287 kts | 139° |
| 2026-04-26 14:42 | 53.55475 | -3.56428 | 8851 ft | 286 kts | 139° |
| 2026-04-26 14:43 | 53.54048 | -3.54120 | 8446 ft | 284 kts | 139° |
| 2026-04-26 14:43 | 53.52624 | -3.51827 | 8035 ft | 283 kts | 139° |
| 2026-04-26 14:43 | 53.51209 | -3.49546 | 7652 ft | 280 kts | 139° |
| 2026-04-26 14:43 | 53.49669 | -3.47603 | 7279 ft | 275 kts | 150° |
| 2026-04-26 14:44 | 53.48229 | -3.45519 | 6906 ft | 275 kts | 132° |
| 2026-04-26 14:44 | 53.47027 | -3.43058 | 6625 ft | 269 kts | 131° |
| 2026-04-26 14:44 | 53.45865 | -3.40645 | 6370 ft | 262 kts | 131° |
| 2026-04-26 14:44 | 53.44732 | -3.38302 | 6105 ft | 255 kts | 131° |
| 2026-04-26 14:45 | 53.43622 | -3.36029 | 5839 ft | 249 kts | 132° |
| 2026-04-26 14:45 | 53.42897 | -3.34558 | 5662 ft | 245 kts | 132° |
| 2026-04-26 14:45 | 53.41458 | -3.31650 | 5290 ft | 239 kts | 132° |
| 2026-04-26 14:45 | 53.40414 | -3.29558 | 5018 ft | 235 kts | 132° |
| 2026-04-26 14:46 | 53.39373 | -3.27479 | 4731 ft | 231 kts | 133° |
| 2026-04-26 14:46 | 53.38347 | -3.25434 | 4440 ft | 228 kts | 133° |
| 2026-04-26 14:46 | 53.37329 | -3.23409 | 4168 ft | 227 kts | 133° |
| 2026-04-26 14:46 | 53.36315 | -3.21397 | 3892 ft | 226 kts | 133° |
| 2026-04-26 14:47 | 53.35308 | -3.19400 | 3646 ft | 223 kts | 132° |
| 2026-04-26 14:47 | 53.34323 | -3.17444 | 3478 ft | 217 kts | 132° |
| 2026-04-26 14:47 | 53.33360 | -3.15532 | 3298 ft | 212 kts | 132° |
| 2026-04-26 14:47 | 53.32481 | -3.13580 | 3116 ft | 210 kts | 118° |
| 2026-04-26 14:48 | 53.32136 | -3.11279 | 2966 ft | 201 kts | 92° |
| 2026-04-26 14:48 | 53.32213 | -3.08984 | 2722 ft | 195 kts | 86° |
| 2026-04-26 14:48 | 53.32331 | -3.06752 | 2461 ft | 190 kts | 86° |
| 2026-04-26 14:48 | 53.32439 | -3.04586 | 2229 ft | 182 kts | 87° |
| 2026-04-26 14:49 | 53.32537 | -3.02550 | 2001 ft | 172 kts | 87° |
| 2026-04-26 14:49 | 53.32631 | -3.00586 | 1749 ft | 165 kts | 87° |
| 2026-04-26 14:49 | 53.32718 | -2.98762 | 1525 ft | 150 kts | 88° |
| 2026-04-26 14:49 | 53.32799 | -2.97064 | 1330 ft | 143 kts | 89° |
| 2026-04-26 14:50 | 53.32882 | -2.95433 | 1143 ft | 139 kts | 88° |
| 2026-04-26 14:50 | 53.32958 | -2.93832 | 929 ft | 137 kts | 88° |
| 2026-04-26 14:50 | 53.33037 | -2.92263 | 741 ft | 135 kts | 88° |
| 2026-04-26 14:50 | 53.33105 | -2.90691 | 575 ft | 135 kts | 88° |
| 2026-04-26 14:51 | 53.33180 | -2.89132 | 392 ft | 135 kts | 89° |
| 2026-04-26 14:51 | 53.33247 | -2.87577 | 242 ft | 133 kts | 91° |
| 2026-04-26 14:51 | 53.33316 | -2.86032 | 85 ft | 130 kts | 89° |
| 2026-04-26 14:51 | 53.33371 | -2.84825 | 76 ft | 65 kts | 85° |
| 2026-04-26 14:52 | 53.33392 | -2.84392 | 78 ft | 30 kts | 86° |
| 2026-04-26 14:52 | 53.33405 | -2.84042 | 78 ft | 30 kts | 85° |
| 2026-04-26 14:52 | 53.33422 | -2.83715 | 68 ft | 20 kts | 86° |
| 2026-04-26 14:52 | 53.33494 | -2.83625 | 70 ft | 14 kts | 356° |
| 2026-04-26 14:53 | 53.33571 | -2.83647 | 81 ft | 9 kts | 334° |
| 2026-04-26 14:53 | 53.33586 | -2.83739 | 80 ft | 10 kts | 268° |
| 2026-04-26 14:53 | 53.33579 | -2.83864 | 72 ft | 12 kts | 262° |
| 2026-04-26 14:53 | 53.33573 | -2.83997 | 70 ft | 11 kts | 268° |
| 2026-04-26 14:54 | 53.33572 | -2.84106 | 71 ft | 8 kts | 267° |
| 2026-04-26 14:54 | 53.33567 | -2.84190 | 71 ft | 7 kts | 263° |
| 2026-04-26 14:54 | 53.33561 | -2.84266 | 78 ft | 8 kts | 264° |
| 2026-04-26 14:54 | 53.33553 | -2.84459 | 73 ft | 23 kts | 265° |
| 2026-04-26 14:55 | 53.33539 | -2.84737 | 87 ft | 24 kts | 265° |
| 2026-04-26 14:55 | 53.33525 | -2.85019 | 87 ft | 25 kts | 265° |
| 2026-04-26 14:55 | 53.33514 | -2.85305 | 84 ft | 23 kts | 266° |
| 2026-04-26 14:55 | 53.33521 | -2.85493 | 90 ft | 11 kts | 315° |
| 2026-04-26 14:56 | 53.33592 | -2.85508 | 87 ft | 10 kts | 12° |
| 2026-04-26 14:56 | 53.33636 | -2.85442 | 88 ft | 8 kts | 23° |
| 2026-04-26 14:56 | 53.33662 | -2.85439 | 89 ft | 1 kts | 357° |
| 2026-04-26 14:56 | 53.33668 | -2.85439 | 89 ft | 0 kts | 355° |